sensor_id;sensor_type;location;lat;lon;timestamp;P1;durP1;ratioP1;P2;durP2;ratioP2
54899;SDS011;40801;41.924;25.562;2023-04-25T00:01:10;10.27;;;9.18;;
54899;SDS011;40801;41.924;25.562;2023-04-25T00:03:37;10.70;;;9.68;;
54899;SDS011;40801;41.924;25.562;2023-04-25T00:06:04;11.43;;;10.23;;
54899;SDS011;40801;41.924;25.562;2023-04-25T00:08:29;10.20;;;9.23;;
54899;SDS011;40801;41.924;25.562;2023-04-25T00:10:56;9.82;;;8.93;;
54899;SDS011;40801;41.924;25.562;2023-04-25T00:13:22;10.38;;;9.57;;
54899;SDS011;40801;41.924;25.562;2023-04-25T00:15:48;10.25;;;9.32;;
54899;SDS011;40801;41.924;25.562;2023-04-25T00:18:14;11.18;;;10.13;;
54899;SDS011;40801;41.924;25.562;2023-04-25T00:20:40;10.18;;;9.38;;
54899;SDS011;40801;41.924;25.562;2023-04-25T00:23:12;10.38;;;9.52;;
54899;SDS011;40801;41.924;25.562;2023-04-25T00:25:42;9.80;;;8.90;;
54899;SDS011;40801;41.924;25.562;2023-04-25T00:28:11;9.85;;;8.98;;
54899;SDS011;40801;41.924;25.562;2023-04-25T00:30:37;10.75;;;9.75;;
54899;SDS011;40801;41.924;25.562;2023-04-25T00:33:03;10.85;;;9.82;;
54899;SDS011;40801;41.924;25.562;2023-04-25T00:35:28;9.85;;;9.02;;
54899;SDS011;40801;41.924;25.562;2023-04-25T00:37:54;11.35;;;9.85;;
54899;SDS011;40801;41.924;25.562;2023-04-25T00:40:20;10.35;;;9.35;;
54899;SDS011;40801;41.924;25.562;2023-04-25T00:42:45;10.55;;;9.57;;
54899;SDS011;40801;41.924;25.562;2023-04-25T00:45:12;10.52;;;9.63;;
54899;SDS011;40801;41.924;25.562;2023-04-25T00:47:39;9.68;;;8.77;;
54899;SDS011;40801;41.924;25.562;2023-04-25T00:50:05;9.95;;;9.05;;
54899;SDS011;40801;41.924;25.562;2023-04-25T00:52:32;10.13;;;9.13;;
54899;SDS011;40801;41.924;25.562;2023-04-25T00:54:57;10.23;;;9.32;;
54899;SDS011;40801;41.924;25.562;2023-04-25T00:57:24;11.82;;;10.73;;
54899;SDS011;40801;41.924;25.562;2023-04-25T00:59:50;9.90;;;9.13;;
54899;SDS011;40801;41.924;25.562;2023-04-25T01:02:17;10.57;;;9.80;;
54899;SDS011;40801;41.924;25.562;2023-04-25T01:04:42;11.45;;;10.48;;
54899;SDS011;40801;41.924;25.562;2023-04-25T01:07:08;10.43;;;9.63;;
54899;SDS011;40801;41.924;25.562;2023-04-25T01:09:35;11.05;;;10.07;;
54899;SDS011;40801;41.924;25.562;2023-04-25T01:12:00;10.95;;;10.02;;
54899;SDS011;40801;41.924;25.562;2023-04-25T01:14:26;9.85;;;9.05;;
54899;SDS011;40801;41.924;25.562;2023-04-25T01:16:52;10.35;;;9.55;;
54899;SDS011;40801;41.924;25.562;2023-04-25T01:19:18;11.15;;;9.95;;
54899;SDS011;40801;41.924;25.562;2023-04-25T01:21:44;10.75;;;9.95;;
54899;SDS011;40801;41.924;25.562;2023-04-25T01:24:10;11.13;;;10.15;;
54899;SDS011;40801;41.924;25.562;2023-04-25T01:26:36;10.43;;;9.60;;
54899;SDS011;40801;41.924;25.562;2023-04-25T01:29:03;11.48;;;10.55;;
54899;SDS011;40801;41.924;25.562;2023-04-25T01:31:29;11.02;;;10.05;;
54899;SDS011;40801;41.924;25.562;2023-04-25T01:33:56;11.95;;;10.93;;
54899;SDS011;40801;41.924;25.562;2023-04-25T01:36:21;11.05;;;9.95;;
54899;SDS011;40801;41.924;25.562;2023-04-25T01:38:47;10.70;;;9.88;;
54899;SDS011;40801;41.924;25.562;2023-04-25T01:41:13;11.18;;;10.27;;
54899;SDS011;40801;41.924;25.562;2023-04-25T01:43:39;10.85;;;10.02;;
54899;SDS011;40801;41.924;25.562;2023-04-25T01:46:05;10.98;;;10.07;;
54899;SDS011;40801;41.924;25.562;2023-04-25T01:48:31;9.43;;;8.73;;
54899;SDS011;40801;41.924;25.562;2023-04-25T01:50:56;9.68;;;9.00;;
54899;SDS011;40801;41.924;25.562;2023-04-25T01:53:22;10.32;;;9.63;;
54899;SDS011;40801;41.924;25.562;2023-04-25T01:55:47;11.55;;;10.55;;
54899;SDS011;40801;41.924;25.562;2023-04-25T01:58:13;9.40;;;8.80;;
54899;SDS011;40801;41.924;25.562;2023-04-25T02:00:38;8.63;;;7.93;;
54899;SDS011;40801;41.924;25.562;2023-04-25T02:03:05;8.18;;;7.43;;
54899;SDS011;40801;41.924;25.562;2023-04-25T02:05:35;9.57;;;7.88;;
54899;SDS011;40801;41.924;25.562;2023-04-25T02:08:02;8.80;;;8.20;;
54899;SDS011;40801;41.924;25.562;2023-04-25T02:10:28;8.00;;;7.30;;
54899;SDS011;40801;41.924;25.562;2023-04-25T02:12:54;7.40;;;6.80;;
54899;SDS011;40801;41.924;25.562;2023-04-25T02:15:19;8.70;;;7.90;;
54899;SDS011;40801;41.924;25.562;2023-04-25T02:17:44;8.15;;;7.50;;
54899;SDS011;40801;41.924;25.562;2023-04-25T02:20:11;7.65;;;6.95;;
54899;SDS011;40801;41.924;25.562;2023-04-25T02:22:36;6.97;;;6.35;;
54899;SDS011;40801;41.924;25.562;2023-04-25T02:25:02;7.90;;;7.30;;
54899;SDS011;40801;41.924;25.562;2023-04-25T02:27:29;7.80;;;7.10;;
54899;SDS011;40801;41.924;25.562;2023-04-25T02:29:55;6.95;;;6.35;;
54899;SDS011;40801;41.924;25.562;2023-04-25T02:32:20;6.70;;;6.28;;
54899;SDS011;40801;41.924;25.562;2023-04-25T02:34:46;6.82;;;6.32;;
54899;SDS011;40801;41.924;25.562;2023-04-25T02:37:12;7.35;;;6.60;;
54899;SDS011;40801;41.924;25.562;2023-04-25T02:39:37;6.93;;;6.35;;
54899;SDS011;40801;41.924;25.562;2023-04-25T02:42:02;5.82;;;5.53;;
54899;SDS011;40801;41.924;25.562;2023-04-25T02:44:28;6.43;;;5.93;;
54899;SDS011;40801;41.924;25.562;2023-04-25T02:46:53;6.88;;;6.28;;
54899;SDS011;40801;41.924;25.562;2023-04-25T02:49:19;6.65;;;6.15;;
54899;SDS011;40801;41.924;25.562;2023-04-25T02:51:44;7.03;;;6.47;;
54899;SDS011;40801;41.924;25.562;2023-04-25T02:54:09;7.18;;;6.47;;
54899;SDS011;40801;41.924;25.562;2023-04-25T02:56:35;7.00;;;6.50;;
54899;SDS011;40801;41.924;25.562;2023-04-25T02:59:00;8.20;;;6.50;;
54899;SDS011;40801;41.924;25.562;2023-04-25T03:01:26;7.40;;;6.80;;
54899;SDS011;40801;41.924;25.562;2023-04-25T03:03:51;7.63;;;6.85;;
54899;SDS011;40801;41.924;25.562;2023-04-25T03:06:17;7.07;;;6.57;;
54899;SDS011;40801;41.924;25.562;2023-04-25T03:08:42;7.03;;;6.53;;
54899;SDS011;40801;41.924;25.562;2023-04-25T03:11:07;7.57;;;6.97;;
54899;SDS011;40801;41.924;25.562;2023-04-25T03:13:33;7.03;;;6.43;;
54899;SDS011;40801;41.924;25.562;2023-04-25T03:15:58;7.82;;;7.03;;
54899;SDS011;40801;41.924;25.562;2023-04-25T03:18:24;11.10;;;7.57;;
54899;SDS011;40801;41.924;25.562;2023-04-25T03:20:49;7.03;;;6.43;;
54899;SDS011;40801;41.924;25.562;2023-04-25T03:23:15;7.32;;;6.72;;
54899;SDS011;40801;41.924;25.562;2023-04-25T03:25:40;7.50;;;6.85;;
54899;SDS011;40801;41.924;25.562;2023-04-25T03:28:05;8.35;;;7.40;;
54899;SDS011;40801;41.924;25.562;2023-04-25T03:30:31;7.30;;;6.75;;
54899;SDS011;40801;41.924;25.562;2023-04-25T03:32:56;9.80;;;6.88;;
54899;SDS011;40801;41.924;25.562;2023-04-25T03:35:21;8.02;;;7.35;;
54899;SDS011;40801;41.924;25.562;2023-04-25T03:37:48;7.63;;;6.93;;
54899;SDS011;40801;41.924;25.562;2023-04-25T03:40:14;8.68;;;7.88;;
54899;SDS011;40801;41.924;25.562;2023-04-25T03:42:39;9.40;;;6.90;;
54899;SDS011;40801;41.924;25.562;2023-04-25T03:45:05;7.75;;;7.15;;
54899;SDS011;40801;41.924;25.562;2023-04-25T03:47:31;7.13;;;6.53;;
54899;SDS011;40801;41.924;25.562;2023-04-25T03:49:56;8.30;;;7.50;;
54899;SDS011;40801;41.924;25.562;2023-04-25T03:52:22;8.50;;;7.90;;
54899;SDS011;40801;41.924;25.562;2023-04-25T03:54:47;9.02;;;7.75;;
54899;SDS011;40801;41.924;25.562;2023-04-25T03:57:12;8.77;;;8.10;;
54899;SDS011;40801;41.924;25.562;2023-04-25T03:59:38;8.98;;;8.05;;
54899;SDS011;40801;41.924;25.562;2023-04-25T04:02:03;9.80;;;7.82;;
54899;SDS011;40801;41.924;25.562;2023-04-25T04:04:29;12.13;;;9.13;;
54899;SDS011;40801;41.924;25.562;2023-04-25T04:06:55;8.82;;;8.10;;
54899;SDS011;40801;41.924;25.562;2023-04-25T04:09:20;8.05;;;7.35;;
54899;SDS011;40801;41.924;25.562;2023-04-25T04:11:46;7.90;;;7.30;;
54899;SDS011;40801;41.924;25.562;2023-04-25T04:14:11;7.95;;;7.35;;
54899;SDS011;40801;41.924;25.562;2023-04-25T04:16:36;8.63;;;7.93;;
54899;SDS011;40801;41.924;25.562;2023-04-25T04:19:02;8.63;;;7.80;;
54899;SDS011;40801;41.924;25.562;2023-04-25T04:21:28;8.57;;;7.68;;
54899;SDS011;40801;41.924;25.562;2023-04-25T04:23:53;8.65;;;8.05;;
54899;SDS011;40801;41.924;25.562;2023-04-25T04:26:19;13.80;;;12.40;;
54899;SDS011;40801;41.924;25.562;2023-04-25T04:28:48;10.02;;;9.07;;
54899;SDS011;40801;41.924;25.562;2023-04-25T04:31:16;10.25;;;9.38;;
54899;SDS011;40801;41.924;25.562;2023-04-25T04:33:44;11.65;;;10.55;;
54899;SDS011;40801;41.924;25.562;2023-04-25T04:36:10;10.73;;;9.65;;
54899;SDS011;40801;41.924;25.562;2023-04-25T04:38:36;8.80;;;8.10;;
54899;SDS011;40801;41.924;25.562;2023-04-25T04:41:02;9.27;;;8.45;;
54899;SDS011;40801;41.924;25.562;2023-04-25T04:43:28;10.27;;;9.25;;
54899;SDS011;40801;41.924;25.562;2023-04-25T04:45:54;14.27;;;12.85;;
54899;SDS011;40801;41.924;25.562;2023-04-25T04:48:21;10.77;;;9.57;;
54899;SDS011;40801;41.924;25.562;2023-04-25T04:50:47;10.20;;;9.30;;
54899;SDS011;40801;41.924;25.562;2023-04-25T04:53:13;9.23;;;8.52;;
54899;SDS011;40801;41.924;25.562;2023-04-25T04:55:38;9.35;;;8.55;;
54899;SDS011;40801;41.924;25.562;2023-04-25T04:58:06;8.85;;;7.95;;
54899;SDS011;40801;41.924;25.562;2023-04-25T05:00:31;8.85;;;8.25;;
54899;SDS011;40801;41.924;25.562;2023-04-25T05:02:58;8.52;;;7.72;;
54899;SDS011;40801;41.924;25.562;2023-04-25T05:05:23;8.25;;;7.55;;
54899;SDS011;40801;41.924;25.562;2023-04-25T05:07:49;10.18;;;9.38;;
54899;SDS011;40801;41.924;25.562;2023-04-25T05:10:14;8.60;;;7.85;;
54899;SDS011;40801;41.924;25.562;2023-04-25T05:12:40;11.38;;;10.38;;
54899;SDS011;40801;41.924;25.562;2023-04-25T05:15:05;10.93;;;9.93;;
54899;SDS011;40801;41.924;25.562;2023-04-25T05:17:31;10.32;;;9.23;;
54899;SDS011;40801;41.924;25.562;2023-04-25T05:19:57;9.73;;;9.00;;
54899;SDS011;40801;41.924;25.562;2023-04-25T05:22:23;10.50;;;9.50;;
54899;SDS011;40801;41.924;25.562;2023-04-25T05:24:48;10.43;;;9.45;;
54899;SDS011;40801;41.924;25.562;2023-04-25T05:27:16;10.52;;;9.73;;
54899;SDS011;40801;41.924;25.562;2023-04-25T05:29:42;10.70;;;9.73;;
54899;SDS011;40801;41.924;25.562;2023-04-25T05:32:07;10.90;;;9.88;;
54899;SDS011;40801;41.924;25.562;2023-04-25T05:34:34;10.25;;;9.10;;
54899;SDS011;40801;41.924;25.562;2023-04-25T05:37:00;10.00;;;9.13;;
54899;SDS011;40801;41.924;25.562;2023-04-25T05:39:25;9.35;;;8.55;;
54899;SDS011;40801;41.924;25.562;2023-04-25T05:41:51;11.43;;;10.38;;
54899;SDS011;40801;41.924;25.562;2023-04-25T05:44:17;10.25;;;9.35;;
54899;SDS011;40801;41.924;25.562;2023-04-25T05:46:42;9.75;;;8.90;;
54899;SDS011;40801;41.924;25.562;2023-04-25T05:49:08;9.68;;;8.77;;
54899;SDS011;40801;41.924;25.562;2023-04-25T05:51:34;9.10;;;8.30;;
54899;SDS011;40801;41.924;25.562;2023-04-25T05:53:59;10.02;;;9.05;;
54899;SDS011;40801;41.924;25.562;2023-04-25T05:56:24;8.50;;;7.70;;
54899;SDS011;40801;41.924;25.562;2023-04-25T05:58:50;8.38;;;7.70;;
54899;SDS011;40801;41.924;25.562;2023-04-25T06:01:16;7.93;;;7.25;;
54899;SDS011;40801;41.924;25.562;2023-04-25T06:03:41;7.50;;;6.90;;
54899;SDS011;40801;41.924;25.562;2023-04-25T06:06:08;7.60;;;7.10;;
54899;SDS011;40801;41.924;25.562;2023-04-25T06:08:34;7.03;;;6.53;;
54899;SDS011;40801;41.924;25.562;2023-04-25T06:10:59;7.90;;;7.30;;
54899;SDS011;40801;41.924;25.562;2023-04-25T06:13:25;7.03;;;6.53;;
54899;SDS011;40801;41.924;25.562;2023-04-25T06:15:51;7.53;;;6.78;;
54899;SDS011;40801;41.924;25.562;2023-04-25T06:18:17;7.82;;;7.20;;
54899;SDS011;40801;41.924;25.562;2023-04-25T06:20:42;7.50;;;6.90;;
54899;SDS011;40801;41.924;25.562;2023-04-25T06:23:07;7.13;;;6.60;;
54899;SDS011;40801;41.924;25.562;2023-04-25T06:25:33;6.68;;;6.10;;
54899;SDS011;40801;41.924;25.562;2023-04-25T06:27:58;8.32;;;7.63;;
54899;SDS011;40801;41.924;25.562;2023-04-25T06:30:23;9.02;;;8.10;;
54899;SDS011;40801;41.924;25.562;2023-04-25T06:32:51;8.10;;;7.53;;
54899;SDS011;40801;41.924;25.562;2023-04-25T06:35:17;7.50;;;6.88;;
54899;SDS011;40801;41.924;25.562;2023-04-25T06:37:43;7.47;;;6.88;;
54899;SDS011;40801;41.924;25.562;2023-04-25T06:40:09;7.13;;;6.57;;
54899;SDS011;40801;41.924;25.562;2023-04-25T06:42:34;6.57;;;6.13;;
54899;SDS011;40801;41.924;25.562;2023-04-25T06:44:59;7.07;;;6.57;;
54899;SDS011;40801;41.924;25.562;2023-04-25T06:47:25;10.23;;;6.70;;
54899;SDS011;40801;41.924;25.562;2023-04-25T06:49:50;6.25;;;5.75;;
54899;SDS011;40801;41.924;25.562;2023-04-25T06:52:16;5.63;;;5.13;;
54899;SDS011;40801;41.924;25.562;2023-04-25T06:54:43;5.93;;;5.53;;
54899;SDS011;40801;41.924;25.562;2023-04-25T06:57:08;7.68;;;7.03;;
54899;SDS011;40801;41.924;25.562;2023-04-25T06:59:34;6.57;;;6.07;;
54899;SDS011;40801;41.924;25.562;2023-04-25T07:01:59;6.13;;;5.57;;
54899;SDS011;40801;41.924;25.562;2023-04-25T07:04:24;5.70;;;5.20;;
54899;SDS011;40801;41.924;25.562;2023-04-25T07:06:50;6.15;;;5.65;;
54899;SDS011;40801;41.924;25.562;2023-04-25T07:09:16;7.20;;;6.70;;
54899;SDS011;40801;41.924;25.562;2023-04-25T07:11:41;6.45;;;5.93;;
54899;SDS011;40801;41.924;25.562;2023-04-25T07:14:07;6.97;;;6.38;;
54899;SDS011;40801;41.924;25.562;2023-04-25T07:16:32;8.20;;;7.40;;
54899;SDS011;40801;41.924;25.562;2023-04-25T07:18:58;6.90;;;6.22;;
54899;SDS011;40801;41.924;25.562;2023-04-25T07:21:24;6.55;;;5.90;;
54899;SDS011;40801;41.924;25.562;2023-04-25T07:23:50;6.45;;;5.80;;
54899;SDS011;40801;41.924;25.562;2023-04-25T07:26:15;5.80;;;5.40;;
54899;SDS011;40801;41.924;25.562;2023-04-25T07:28:42;9.55;;;6.95;;
54899;SDS011;40801;41.924;25.562;2023-04-25T07:31:08;7.90;;;7.10;;
54899;SDS011;40801;41.924;25.562;2023-04-25T07:33:33;8.30;;;6.80;;
54899;SDS011;40801;41.924;25.562;2023-04-25T07:35:59;7.40;;;6.80;;
54899;SDS011;40801;41.924;25.562;2023-04-25T07:38:25;6.82;;;5.53;;
54899;SDS011;40801;41.924;25.562;2023-04-25T07:40:51;7.60;;;6.90;;
54899;SDS011;40801;41.924;25.562;2023-04-25T07:43:16;10.48;;;6.28;;
54899;SDS011;40801;41.924;25.562;2023-04-25T07:45:44;6.75;;;6.25;;
54899;SDS011;40801;41.924;25.562;2023-04-25T07:48:10;7.57;;;6.85;;
54899;SDS011;40801;41.924;25.562;2023-04-25T07:50:36;6.55;;;5.95;;
54899;SDS011;40801;41.924;25.562;2023-04-25T07:53:01;6.70;;;6.00;;
54899;SDS011;40801;41.924;25.562;2023-04-25T07:55:27;7.40;;;6.80;;
54899;SDS011;40801;41.924;25.562;2023-04-25T07:57:53;6.80;;;6.30;;
54899;SDS011;40801;41.924;25.562;2023-04-25T08:00:18;8.48;;;6.75;;
54899;SDS011;40801;41.924;25.562;2023-04-25T08:02:44;7.20;;;6.60;;
54899;SDS011;40801;41.924;25.562;2023-04-25T08:05:09;7.35;;;6.65;;
54899;SDS011;40801;41.924;25.562;2023-04-25T08:07:36;5.85;;;5.38;;
54899;SDS011;40801;41.924;25.562;2023-04-25T08:10:04;6.40;;;5.88;;
54899;SDS011;40801;41.924;25.562;2023-04-25T08:12:30;7.20;;;6.20;;
54899;SDS011;40801;41.924;25.562;2023-04-25T08:14:56;5.85;;;5.35;;
54899;SDS011;40801;41.924;25.562;2023-04-25T08:17:21;5.55;;;5.15;;
54899;SDS011;40801;41.924;25.562;2023-04-25T08:19:46;8.07;;;7.45;;
54899;SDS011;40801;41.924;25.562;2023-04-25T08:22:12;7.88;;;7.15;;
54899;SDS011;40801;41.924;25.562;2023-04-25T08:24:37;7.13;;;6.43;;
54899;SDS011;40801;41.924;25.562;2023-04-25T08:27:03;6.80;;;6.20;;
54899;SDS011;40801;41.924;25.562;2023-04-25T08:29:28;6.63;;;5.90;;
54899;SDS011;40801;41.924;25.562;2023-04-25T08:31:54;5.65;;;5.15;;
54899;SDS011;40801;41.924;25.562;2023-04-25T08:34:19;6.70;;;5.82;;
54899;SDS011;40801;41.924;25.562;2023-04-25T08:36:45;35.53;;;30.63;;
54899;SDS011;40801;41.924;25.562;2023-04-25T08:39:11;5.97;;;5.47;;
54899;SDS011;40801;41.924;25.562;2023-04-25T08:41:36;6.07;;;5.57;;
54899;SDS011;40801;41.924;25.562;2023-04-25T08:44:02;5.55;;;5.00;;
54899;SDS011;40801;41.924;25.562;2023-04-25T08:46:29;4.97;;;4.47;;
54899;SDS011;40801;41.924;25.562;2023-04-25T08:48:57;5.90;;;5.40;;
54899;SDS011;40801;41.924;25.562;2023-04-25T08:51:25;5.22;;;4.82;;
54899;SDS011;40801;41.924;25.562;2023-04-25T08:53:53;5.07;;;4.68;;
54899;SDS011;40801;41.924;25.562;2023-04-25T08:56:18;4.93;;;4.63;;
54899;SDS011;40801;41.924;25.562;2023-04-25T08:58:50;5.45;;;4.95;;
54899;SDS011;40801;41.924;25.562;2023-04-25T09:03:42;5.10;;;4.72;;
54899;SDS011;40801;41.924;25.562;2023-04-25T09:06:09;4.07;;;3.78;;
54899;SDS011;40801;41.924;25.562;2023-04-25T09:08:36;4.07;;;3.78;;
54899;SDS011;40801;41.924;25.562;2023-04-25T09:11:02;3.50;;;3.13;;
54899;SDS011;40801;41.924;25.562;2023-04-25T09:13:28;3.45;;;3.25;;
54899;SDS011;40801;41.924;25.562;2023-04-25T09:15:55;4.07;;;3.60;;
54899;SDS011;40801;41.924;25.562;2023-04-25T09:18:26;4.00;;;3.35;;
54899;SDS011;40801;41.924;25.562;2023-04-25T09:20:56;3.80;;;3.50;;
54899;SDS011;40801;41.924;25.562;2023-04-25T09:23:29;4.65;;;4.25;;
54899;SDS011;40801;41.924;25.562;2023-04-25T09:25:55;4.10;;;3.75;;
54899;SDS011;40801;41.924;25.562;2023-04-25T09:28:24;9.13;;;8.35;;
54899;SDS011;40801;41.924;25.562;2023-04-25T09:30:54;6.57;;;6.03;;
54899;SDS011;40801;41.924;25.562;2023-04-25T09:33:23;5.07;;;4.47;;
54899;SDS011;40801;41.924;25.562;2023-04-25T09:35:53;5.63;;;5.20;;
54899;SDS011;40801;41.924;25.562;2023-04-25T09:38:20;4.38;;;4.07;;
54899;SDS011;40801;41.924;25.562;2023-04-25T09:40:47;4.95;;;4.57;;
54899;SDS011;40801;41.924;25.562;2023-04-25T09:43:21;5.38;;;4.53;;
54899;SDS011;40801;41.924;25.562;2023-04-25T09:45:50;4.18;;;3.78;;
54899;SDS011;40801;41.924;25.562;2023-04-25T09:48:18;3.87;;;3.47;;
54899;SDS011;40801;41.924;25.562;2023-04-25T09:53:41;4.82;;;4.03;;
54899;SDS011;40801;41.924;25.562;2023-04-25T09:56:16;3.72;;;3.42;;
54899;SDS011;40801;41.924;25.562;2023-04-25T09:58:41;3.50;;;3.30;;
54899;SDS011;40801;41.924;25.562;2023-04-25T10:01:08;3.25;;;3.05;;
54899;SDS011;40801;41.924;25.562;2023-04-25T10:03:36;3.15;;;3.03;;
54899;SDS011;40801;41.924;25.562;2023-04-25T10:06:07;3.17;;;2.97;;
54899;SDS011;40801;41.924;25.562;2023-04-25T10:08:35;2.90;;;2.70;;
54899;SDS011;40801;41.924;25.562;2023-04-25T10:11:05;5.07;;;3.08;;
54899;SDS011;40801;41.924;25.562;2023-04-25T10:13:32;3.10;;;2.80;;
54899;SDS011;40801;41.924;25.562;2023-04-25T10:16:01;3.58;;;2.78;;
54899;SDS011;40801;41.924;25.562;2023-04-25T10:18:28;3.58;;;3.33;;
54899;SDS011;40801;41.924;25.562;2023-04-25T10:20:59;5.30;;;3.78;;
54899;SDS011;40801;41.924;25.562;2023-04-25T10:23:26;4.68;;;4.38;;
54899;SDS011;40801;41.924;25.562;2023-04-25T10:25:54;4.50;;;4.20;;
54899;SDS011;40801;41.924;25.562;2023-04-25T10:28:20;4.38;;;4.03;;
54899;SDS011;40801;41.924;25.562;2023-04-25T10:30:58;5.30;;;4.88;;
54899;SDS011;40801;41.924;25.562;2023-04-25T10:33:37;6.72;;;6.18;;
54899;SDS011;40801;41.924;25.562;2023-04-25T10:36:08;10.57;;;6.10;;
54899;SDS011;40801;41.924;25.562;2023-04-25T10:38:35;5.82;;;4.85;;
54899;SDS011;40801;41.924;25.562;2023-04-25T10:41:05;5.47;;;4.97;;
54899;SDS011;40801;41.924;25.562;2023-04-25T10:46:39;5.97;;;5.47;;
54899;SDS011;40801;41.924;25.562;2023-04-25T10:49:00;6.95;;;6.40;;
54899;SDS011;40801;41.924;25.562;2023-04-25T10:51:33;5.82;;;5.35;;
54899;SDS011;40801;41.924;25.562;2023-04-25T10:56:36;5.95;;;5.47;;
54899;SDS011;40801;41.924;25.562;2023-04-25T11:01:44;5.65;;;5.28;;
54899;SDS011;40801;41.924;25.562;2023-04-25T11:09:27;6.43;;;5.85;;
54899;SDS011;40801;41.924;25.562;2023-04-25T11:11:56;4.75;;;4.35;;
54899;SDS011;40801;41.924;25.562;2023-04-25T11:14:24;4.78;;;4.47;;
54899;SDS011;40801;41.924;25.562;2023-04-25T11:16:53;11.43;;;10.43;;
54899;SDS011;40801;41.924;25.562;2023-04-25T11:19:20;5.82;;;5.38;;
54899;SDS011;40801;41.924;25.562;2023-04-25T11:21:46;6.68;;;5.95;;
54899;SDS011;40801;41.924;25.562;2023-04-25T11:24:12;4.50;;;4.20;;
54899;SDS011;40801;41.924;25.562;2023-04-25T11:26:37;5.60;;;5.20;;
54899;SDS011;40801;41.924;25.562;2023-04-25T11:29:03;13.82;;;12.77;;
54899;SDS011;40801;41.924;25.562;2023-04-25T11:31:29;6.55;;;6.05;;
54899;SDS011;40801;41.924;25.562;2023-04-25T11:33:56;6.30;;;5.70;;
54899;SDS011;40801;41.924;25.562;2023-04-25T11:36:23;6.20;;;5.80;;
54899;SDS011;40801;41.924;25.562;2023-04-25T11:38:52;5.07;;;4.68;;
54899;SDS011;40801;41.924;25.562;2023-04-25T11:41:19;2.60;;;2.40;;
54899;SDS011;40801;41.924;25.562;2023-04-25T11:43:45;3.25;;;3.05;;
54899;SDS011;40801;41.924;25.562;2023-04-25T11:46:11;4.25;;;3.80;;
54899;SDS011;40801;41.924;25.562;2023-04-25T11:48:40;3.50;;;3.20;;
54899;SDS011;40801;41.924;25.562;2023-04-25T11:51:06;3.50;;;3.30;;
54899;SDS011;40801;41.924;25.562;2023-04-25T11:53:32;1.67;;;1.58;;
54899;SDS011;40801;41.924;25.562;2023-04-25T11:55:58;2.00;;;1.90;;
54899;SDS011;40801;41.924;25.562;2023-04-25T11:58:23;1.52;;;1.50;;
54899;SDS011;40801;41.924;25.562;2023-04-25T12:00:50;1.60;;;1.55;;
54899;SDS011;40801;41.924;25.562;2023-04-25T12:03:15;1.45;;;1.42;;
54899;SDS011;40801;41.924;25.562;2023-04-25T12:05:43;2.13;;;2.03;;
54899;SDS011;40801;41.924;25.562;2023-04-25T12:08:12;1.75;;;1.55;;
54899;SDS011;40801;41.924;25.562;2023-04-25T12:10:39;1.80;;;1.10;;
54899;SDS011;40801;41.924;25.562;2023-04-25T12:13:19;2.70;;;2.50;;
54899;SDS011;40801;41.924;25.562;2023-04-25T12:15:56;4.85;;;4.45;;
54899;SDS011;40801;41.924;25.562;2023-04-25T12:18:24;1.75;;;1.65;;
54899;SDS011;40801;41.924;25.562;2023-04-25T12:20:52;1.15;;;1.10;;
54899;SDS011;40801;41.924;25.562;2023-04-25T12:23:24;2.00;;;1.90;;
54899;SDS011;40801;41.924;25.562;2023-04-25T12:25:51;1.80;;;1.70;;
54899;SDS011;40801;41.924;25.562;2023-04-25T12:33:36;3.22;;;2.92;;
54899;SDS011;40801;41.924;25.562;2023-04-25T12:36:03;2.88;;;2.50;;
54899;SDS011;40801;41.924;25.562;2023-04-25T12:38:37;1.55;;;1.40;;
54899;SDS011;40801;41.924;25.562;2023-04-25T12:41:04;1.67;;;1.58;;
54899;SDS011;40801;41.924;25.562;2023-04-25T12:43:29;6.95;;;6.47;;
54899;SDS011;40801;41.924;25.562;2023-04-25T12:45:55;1.75;;;1.65;;
54899;SDS011;40801;41.924;25.562;2023-04-25T12:48:21;2.40;;;2.20;;
54899;SDS011;40801;41.924;25.562;2023-04-25T12:50:47;1.50;;;1.40;;
54899;SDS011;40801;41.924;25.562;2023-04-25T12:53:14;1.73;;;1.60;;
54899;SDS011;40801;41.924;25.562;2023-04-25T12:55:43;2.25;;;1.40;;
54899;SDS011;40801;41.924;25.562;2023-04-25T12:58:16;1.30;;;1.30;;
54899;SDS011;40801;41.924;25.562;2023-04-25T13:00:43;1.50;;;1.40;;
54899;SDS011;40801;41.924;25.562;2023-04-25T13:03:09;1.05;;;1.05;;
54899;SDS011;40801;41.924;25.562;2023-04-25T13:05:38;1.70;;;1.60;;
54899;SDS011;40801;41.924;25.562;2023-04-25T13:08:04;1.48;;;1.38;;
54899;SDS011;40801;41.924;25.562;2023-04-25T13:10:30;4.05;;;2.72;;
54899;SDS011;40801;41.924;25.562;2023-04-25T13:12:56;3.10;;;2.90;;
54899;SDS011;40801;41.924;25.562;2023-04-25T13:15:21;2.03;;;1.92;;
54899;SDS011;40801;41.924;25.562;2023-04-25T13:17:48;2.35;;;2.25;;
54899;SDS011;40801;41.924;25.562;2023-04-25T13:20:13;2.13;;;2.03;;
54899;SDS011;40801;41.924;25.562;2023-04-25T13:22:39;1.95;;;1.85;;
54899;SDS011;40801;41.924;25.562;2023-04-25T13:25:06;1.77;;;1.70;;
54899;SDS011;40801;41.924;25.562;2023-04-25T13:27:32;1.88;;;1.77;;
54899;SDS011;40801;41.924;25.562;2023-04-25T13:29:59;2.20;;;2.10;;
54899;SDS011;40801;41.924;25.562;2023-04-25T13:32:26;1.75;;;1.60;;
54899;SDS011;40801;41.924;25.562;2023-04-25T13:34:51;1.63;;;1.60;;
54899;SDS011;40801;41.924;25.562;2023-04-25T13:37:17;2.60;;;2.50;;
54899;SDS011;40801;41.924;25.562;2023-04-25T13:39:43;2.22;;;2.03;;
54899;SDS011;40801;41.924;25.562;2023-04-25T13:42:08;1.75;;;1.65;;
54899;SDS011;40801;41.924;25.562;2023-04-25T13:44:34;2.42;;;2.22;;
54899;SDS011;40801;41.924;25.562;2023-04-25T13:46:59;2.72;;;2.00;;
54899;SDS011;40801;41.924;25.562;2023-04-25T13:49:25;2.35;;;2.10;;
54899;SDS011;40801;41.924;25.562;2023-04-25T13:51:51;2.20;;;2.03;;
54899;SDS011;40801;41.924;25.562;2023-04-25T13:54:17;2.50;;;2.30;;
54899;SDS011;40801;41.924;25.562;2023-04-25T13:56:42;2.45;;;2.10;;
54899;SDS011;40801;41.924;25.562;2023-04-25T13:59:08;2.67;;;2.50;;
54899;SDS011;40801;41.924;25.562;2023-04-25T14:01:33;5.78;;;5.32;;
54899;SDS011;40801;41.924;25.562;2023-04-25T14:04:00;5.32;;;4.97;;
54899;SDS011;40801;41.924;25.562;2023-04-25T14:06:26;3.83;;;3.55;;
54899;SDS011;40801;41.924;25.562;2023-04-25T14:08:52;3.38;;;3.17;;
54899;SDS011;40801;41.924;25.562;2023-04-25T14:11:19;3.10;;;2.90;;
54899;SDS011;40801;41.924;25.562;2023-04-25T14:13:44;4.90;;;4.60;;
54899;SDS011;40801;41.924;25.562;2023-04-25T14:16:10;4.07;;;3.88;;
54899;SDS011;40801;41.924;25.562;2023-04-25T14:18:36;4.30;;;3.97;;
54899;SDS011;40801;41.924;25.562;2023-04-25T14:21:01;21.95;;;18.65;;
54899;SDS011;40801;41.924;25.562;2023-04-25T14:23:27;10.68;;;9.90;;
54899;SDS011;40801;41.924;25.562;2023-04-25T14:25:52;5.18;;;4.80;;
54899;SDS011;40801;41.924;25.562;2023-04-25T14:28:18;5.47;;;5.07;;
54899;SDS011;40801;41.924;25.562;2023-04-25T14:30:44;3.38;;;2.78;;
54899;SDS011;40801;41.924;25.562;2023-04-25T14:33:10;10.30;;;9.38;;
54899;SDS011;40801;41.924;25.562;2023-04-25T14:35:36;11.07;;;9.88;;
54899;SDS011;40801;41.924;25.562;2023-04-25T14:38:01;7.85;;;7.25;;
54899;SDS011;40801;41.924;25.562;2023-04-25T14:40:26;5.13;;;4.72;;
54899;SDS011;40801;41.924;25.562;2023-04-25T14:42:52;4.05;;;3.75;;
54899;SDS011;40801;41.924;25.562;2023-04-25T14:45:17;5.95;;;5.45;;
54899;SDS011;40801;41.924;25.562;2023-04-25T14:47:43;5.25;;;4.82;;
54899;SDS011;40801;41.924;25.562;2023-04-25T14:50:08;4.10;;;3.80;;